createdAt,value
2022-08-22T00:01:17.292Z,15.47
2022-08-22T00:02:45.442Z,15.54
2022-08-22T00:03:03.073Z,15.41
2022-08-22T00:03:08.817Z,15.93
2022-08-22T00:03:55.275Z,15.46
2022-08-22T00:06:45.383Z,15.48
2022-08-22T00:09:29.818Z,15.51
2022-08-22T00:11:58.092Z,15.50
2022-08-22T00:14:37.934Z,15.53
2022-08-22T00:17:24.095Z,15.59
2022-08-22T00:20:17.232Z,15.61
2022-08-22T00:23:15.880Z,15.57
2022-08-22T00:26:03.110Z,15.56
2022-08-22T00:28:42.371Z,15.57
2022-08-22T00:31:35.514Z,15.60
2022-08-22T00:34:08.698Z,15.62
2022-08-22T00:36:51.486Z,15.61
2022-08-22T00:39:31.459Z,15.63
2022-08-22T00:42:15.262Z,15.62
2022-08-22T00:45:18.181Z,15.61
2022-08-22T00:47:51.664Z,15.61
2022-08-22T00:51:02.042Z,15.63
2022-08-22T00:53:35.948Z,15.66
2022-08-22T00:56:24.804Z,15.68
2022-08-22T00:59:00.663Z,15.76
2022-08-22T01:01:53.860Z,15.96
2022-08-22T01:05:09.758Z,16.01
2022-08-22T01:07:59.395Z,16.03
2022-08-22T01:10:38.823Z,16.07
2022-08-22T01:13:42.334Z,16.15
2022-08-22T01:16:30.375Z,16.22
2022-08-22T01:19:49.773Z,16.19
2022-08-22T01:22:39.000Z,16.20
2022-08-22T01:25:44.464Z,16.23
2022-08-22T01:28:31.364Z,16.18
2022-08-22T01:31:23.804Z,16.09
2022-08-22T01:34:42.608Z,16.04
2022-08-22T01:37:43.518Z,16.09
2022-08-22T01:40:27.235Z,16.11
2022-08-22T01:43:00.160Z,16.17
2022-08-22T01:45:42.543Z,16.12
2022-08-22T01:48:20.612Z,16.08
2022-08-22T01:50:54.882Z,16.03
2022-08-22T01:53:39.833Z,15.96
2022-08-22T01:56:15.813Z,15.93
2022-08-22T01:59:09.005Z,15.88
2022-08-22T02:02:01.764Z,15.89
2022-08-22T02:04:40.946Z,15.87
2022-08-22T02:07:48.311Z,15.84
2022-08-22T02:10:41.941Z,15.84
2022-08-22T02:13:13.115Z,15.83
2022-08-22T02:15:41.119Z,15.83
2022-08-22T02:18:20.980Z,15.80
2022-08-22T02:20:48.818Z,15.84
2022-08-22T02:23:45.927Z,15.89
2022-08-22T02:27:09.647Z,15.85
2022-08-22T02:29:47.095Z,15.81
2022-08-22T02:32:30.373Z,15.81
2022-08-22T02:35:02.105Z,15.79
2022-08-22T02:37:54.430Z,15.81
2022-08-22T02:40:37.730Z,15.90
2022-08-22T02:43:34.522Z,16.11
2022-08-22T02:46:14.751Z,16.18
2022-08-22T02:48:52.885Z,16.19
2022-08-22T02:51:44.814Z,16.12
2022-08-22T02:54:38.751Z,16.09
2022-08-22T02:57:15.076Z,16.11
2022-08-22T03:00:07.206Z,16.11
2022-08-22T03:03:22.014Z,16.16
2022-08-22T03:05:52.185Z,16.19
2022-08-22T03:08:24.968Z,16.30
2022-08-22T03:11:16.957Z,16.47
2022-08-22T03:13:47.441Z,16.49
2022-08-22T03:16:38.159Z,16.53
2022-08-22T03:19:19.034Z,16.57
2022-08-22T03:21:59.702Z,16.58
2022-08-22T03:24:38.750Z,16.59
2022-08-22T03:27:31.440Z,16.61
2022-08-22T03:30:12.599Z,16.66
2022-08-22T03:32:55.322Z,16.61
2022-08-22T03:35:26.497Z,16.60
2022-08-22T03:38:09.027Z,16.61
2022-08-22T03:41:01.882Z,16.66
2022-08-22T03:43:29.703Z,16.75
2022-08-22T03:46:30.357Z,16.85
2022-08-22T03:49:19.960Z,16.83
2022-08-22T03:52:04.712Z,16.84
2022-08-22T03:54:50.359Z,16.84
2022-08-22T03:57:36.426Z,16.90
2022-08-22T04:00:12.015Z,16.90
2022-08-22T04:03:05.141Z,16.92
2022-08-22T04:06:04.205Z,16.91
2022-08-22T04:08:52.486Z,16.90
2022-08-22T04:12:02.705Z,17.06
2022-08-22T04:15:11.277Z,17.29
2022-08-22T04:17:39.078Z,17.43
2022-08-22T04:20:41.014Z,17.54
2022-08-22T04:23:24.648Z,17.53
2022-08-22T04:26:27.016Z,17.53
2022-08-22T04:29:03.074Z,17.52
2022-08-22T04:31:36.652Z,17.48
2022-08-22T04:34:43.340Z,17.45
2022-08-22T04:37:23.668Z,17.44
2022-08-22T04:39:56.694Z,17.45
2022-08-22T04:42:40.516Z,17.45
2022-08-22T04:45:16.654Z,17.53
2022-08-22T04:48:00.169Z,17.62
2022-08-22T04:50:43.194Z,17.68
2022-08-22T04:53:25.811Z,17.79
2022-08-22T04:56:07.987Z,17.85
2022-08-22T04:58:55.768Z,17.80
2022-08-22T05:01:45.004Z,17.74
2022-08-22T05:04:24.193Z,17.70
2022-08-22T05:07:03.107Z,17.69
2022-08-22T05:09:37.626Z,17.62
2022-08-22T05:12:12.235Z,17.54
2022-08-22T05:15:02.793Z,17.48
2022-08-22T05:17:32.674Z,17.44
2022-08-22T05:20:08.193Z,17.37
2022-08-22T05:22:43.985Z,17.31
2022-08-22T05:25:18.200Z,17.24
2022-08-22T05:27:53.257Z,17.23
2022-08-22T05:30:28.559Z,17.21
2022-08-22T05:33:00.051Z,17.20
2022-08-22T05:36:00.742Z,17.19
2022-08-22T05:38:32.283Z,17.16
2022-08-22T05:41:17.671Z,17.19
2022-08-22T05:43:48.635Z,17.20
2022-08-22T05:46:26.963Z,17.21
2022-08-22T05:49:02.670Z,17.23
2022-08-22T05:51:35.201Z,17.25
2022-08-22T05:54:12.854Z,17.26
2022-08-22T05:57:18.899Z,17.29
2022-08-22T05:59:52.790Z,17.35
2022-08-22T06:02:31.621Z,17.35
2022-08-22T06:05:02.668Z,17.39
2022-08-22T06:07:35.863Z,17.45
2022-08-22T06:10:23.059Z,17.52
2022-08-22T06:13:01.836Z,17.57
2022-08-22T06:15:43.067Z,17.64
2022-08-22T06:18:15.150Z,17.71
2022-08-22T06:20:47.981Z,17.77
2022-08-22T06:23:22.566Z,17.84
2022-08-22T06:25:52.594Z,17.92
2022-08-22T06:28:25.952Z,17.98
2022-08-22T06:30:56.324Z,18.02
2022-08-22T06:33:31.299Z,18.05
2022-08-22T06:36:25.199Z,18.06
2022-08-22T06:39:30.416Z,18.11
2022-08-22T06:42:15.882Z,18.13
2022-08-22T06:44:54.551Z,18.16
2022-08-22T06:47:49.900Z,18.16
2022-08-22T06:50:30.292Z,18.17
2022-08-22T06:53:27.378Z,18.25
2022-08-22T06:55:59.638Z,18.45
2022-08-22T06:58:34.145Z,18.62
2022-08-22T07:01:18.372Z,18.85
2022-08-22T07:03:51.282Z,18.85
2022-08-22T07:06:56.060Z,18.90
2022-08-22T07:09:32.135Z,18.82
2022-08-22T07:12:17.380Z,18.75
2022-08-22T07:14:50.525Z,18.72
2022-08-22T07:17:24.257Z,18.83
2022-08-22T07:19:58.048Z,19.04
2022-08-22T07:22:33.397Z,19.17
2022-08-22T07:25:09.346Z,19.21
2022-08-22T07:28:22.006Z,19.15
2022-08-22T07:31:25.226Z,19.10
2022-08-22T07:34:00.515Z,19.13
2022-08-22T07:36:59.723Z,19.12
2022-08-22T07:39:36.228Z,19.03
2022-08-22T07:42:18.965Z,18.99
2022-08-22T07:45:11.535Z,18.98
2022-08-22T07:48:26.342Z,18.99
2022-08-22T07:51:03.246Z,18.98
2022-08-22T07:53:43.102Z,19.03
2022-08-22T07:56:29.780Z,19.08
2022-08-22T07:59:14.763Z,19.09
2022-08-22T08:01:53.577Z,19.12
2022-08-22T08:04:40.215Z,19.35
2022-08-22T08:07:14.824Z,19.59
2022-08-22T08:10:13.036Z,19.56
2022-08-22T08:13:00.575Z,19.46
2022-08-22T08:15:35.132Z,19.40
2022-08-22T08:18:12.681Z,19.34
2022-08-22T08:20:40.888Z,19.36
2022-08-22T08:23:12.999Z,19.40
2022-08-22T08:26:13.402Z,19.51
2022-08-22T08:28:49.563Z,19.67
2022-08-22T08:31:26.961Z,19.71
2022-08-22T08:34:08.052Z,19.72
2022-08-22T08:36:48.338Z,19.81
2022-08-22T08:39:25.255Z,19.93
2022-08-22T08:42:23.617Z,19.96
2022-08-22T08:45:06.777Z,19.85
2022-08-22T08:47:52.814Z,19.83
2022-08-22T08:50:44.025Z,19.88
2022-08-22T08:53:27.208Z,19.99
2022-08-22T08:56:03.554Z,20.20
2022-08-22T08:58:40.541Z,20.39
2022-08-22T09:01:28.610Z,20.54
2022-08-22T09:04:15.689Z,20.70
2022-08-22T09:06:59.317Z,20.78
2022-08-22T09:09:52.386Z,20.85
2022-08-22T09:13:11.578Z,20.90
2022-08-22T09:15:58.527Z,21.00
2022-08-22T09:19:10.579Z,21.02
2022-08-22T09:22:50.030Z,20.99
2022-08-22T09:25:24.759Z,21.22
2022-08-22T09:28:02.558Z,21.46
2022-08-22T09:30:54.193Z,21.54
2022-08-22T09:33:34.267Z,21.63
2022-08-22T09:36:12.044Z,21.67
2022-08-22T09:39:31.185Z,21.69
2022-08-22T09:42:17.849Z,21.72
2022-08-22T09:44:54.505Z,21.77
2022-08-22T09:47:31.274Z,21.84
2022-08-22T09:50:24.846Z,21.87
2022-08-22T09:53:13.099Z,21.76
2022-08-22T09:56:15.187Z,21.81
2022-08-22T09:59:12.308Z,21.70
2022-08-22T10:01:42.760Z,21.64
2022-08-22T10:04:35.630Z,21.62
2022-08-22T10:07:26.134Z,21.53
2022-08-22T10:10:24.471Z,21.43
2022-08-22T10:13:14.457Z,21.34
2022-08-22T10:15:45.001Z,21.33
2022-08-22T10:18:44.057Z,21.37
2022-08-22T10:21:32.891Z,21.34
2022-08-22T10:24:34.130Z,21.30
2022-08-22T10:27:18.205Z,21.19
2022-08-22T10:29:54.207Z,20.97
2022-08-22T10:32:46.311Z,20.67
2022-08-22T10:35:33.952Z,20.36
2022-08-22T10:38:14.500Z,20.17
2022-08-22T10:40:56.224Z,20.06
2022-08-22T10:43:33.839Z,20.03
2022-08-22T10:46:12.513Z,20.00
2022-08-22T10:48:46.530Z,19.98
2022-08-22T10:51:20.645Z,20.00
2022-08-22T10:54:07.457Z,19.94
2022-08-22T10:56:46.811Z,19.93
2022-08-22T10:59:30.050Z,19.91
2022-08-22T11:02:19.627Z,19.90
2022-08-22T11:05:15.421Z,19.84
2022-08-22T11:08:15.698Z,19.86
2022-08-22T11:10:52.194Z,19.84
2022-08-22T11:13:54.290Z,19.85
2022-08-22T11:16:28.459Z,19.92
2022-08-22T11:19:15.763Z,19.93
2022-08-22T11:22:09.985Z,19.89
2022-08-22T11:25:14.379Z,19.90
2022-08-22T11:28:23.799Z,19.91
2022-08-22T11:31:25.376Z,20.08
2022-08-22T11:33:58.665Z,20.15
2022-08-22T11:36:40.379Z,20.21
2022-08-22T11:39:38.021Z,20.23
2022-08-22T11:42:29.517Z,20.22
2022-08-22T11:45:02.217Z,20.38
2022-08-22T11:47:48.022Z,20.67
2022-08-22T11:50:35.213Z,20.99
2022-08-22T11:53:25.014Z,21.34
2022-08-22T11:56:19.174Z,21.56
2022-08-22T11:59:43.133Z,21.74
2022-08-22T12:02:49.492Z,22.11
2022-08-22T12:05:26.125Z,22.17
2022-08-22T12:08:13.916Z,22.14
2022-08-22T12:11:19.531Z,22.00
2022-08-22T12:14:06.350Z,21.87
2022-08-22T12:16:47.789Z,21.81
2022-08-22T12:19:32.954Z,21.78
2022-08-22T12:22:40.534Z,21.77
2022-08-22T12:25:39.557Z,21.86
2022-08-22T12:28:20.501Z,21.97
2022-08-22T12:30:57.616Z,22.10
2022-08-22T12:33:54.319Z,22.17
2022-08-22T12:36:50.729Z,22.28
2022-08-22T12:39:45.590Z,22.39
2022-08-22T12:42:22.483Z,22.55
2022-08-22T12:45:23.273Z,22.78
2022-08-22T12:48:27.338Z,22.87
2022-08-22T12:51:04.101Z,22.81
2022-08-22T12:54:09.740Z,22.66
2022-08-22T12:56:55.522Z,22.63
2022-08-22T12:59:41.726Z,22.65
2022-08-22T13:02:17.966Z,22.61
2022-08-22T13:04:54.767Z,22.58
2022-08-22T13:07:29.158Z,22.61
2022-08-22T13:10:14.765Z,22.90
2022-08-22T13:12:48.785Z,23.08
2022-08-22T13:15:35.998Z,23.29
2022-08-22T13:18:29.304Z,23.51
2022-08-22T13:21:05.377Z,23.73
2022-08-22T13:23:43.433Z,23.89
2022-08-22T13:26:31.595Z,23.95
2022-08-22T13:32:02.004Z,23.73
2022-08-22T13:34:36.867Z,23.58
2022-08-22T13:37:28.810Z,23.47
2022-08-22T13:40:04.619Z,23.49
2022-08-22T13:42:43.437Z,23.75
2022-08-22T13:45:28.020Z,24.03
2022-08-22T13:48:03.770Z,24.39
2022-08-22T13:50:37.459Z,24.72
2022-08-22T13:53:34.653Z,24.97
2022-08-22T13:56:15.643Z,24.97
2022-08-22T13:58:49.050Z,24.77
2022-08-22T14:01:43.297Z,24.58
2022-08-22T14:04:32.125Z,24.23
2022-08-22T14:07:04.605Z,23.95
2022-08-22T14:09:53.037Z,23.78
2022-08-22T14:12:33.704Z,23.60
2022-08-22T14:15:45.006Z,23.42
2022-08-22T14:18:15.674Z,23.14
2022-08-22T14:20:47.701Z,22.91
2022-08-22T14:23:29.600Z,22.82
2022-08-22T14:25:57.889Z,22.70
2022-08-22T14:28:35.764Z,22.56
2022-08-22T14:31:13.787Z,22.50
2022-08-22T14:33:56.955Z,22.39
2022-08-22T14:36:55.065Z,22.40
2022-08-22T14:39:57.679Z,22.45
2022-08-22T14:42:38.389Z,22.50
2022-08-22T14:45:18.694Z,22.48
2022-08-22T14:48:29.857Z,22.36
2022-08-22T14:51:01.004Z,22.17
2022-08-22T14:53:34.836Z,22.13
2022-08-22T14:56:05.591Z,22.11
2022-08-22T14:58:37.624Z,22.15
2022-08-22T15:01:16.108Z,22.14
2022-08-22T15:03:54.097Z,22.14
2022-08-22T15:06:47.638Z,22.10
2022-08-22T15:09:49.206Z,22.03
2022-08-22T15:12:34.402Z,21.97
2022-08-22T15:15:09.447Z,21.94
2022-08-22T15:17:44.728Z,21.92
2022-08-22T15:20:49.058Z,21.90
2022-08-22T15:23:22.953Z,21.83
2022-08-22T15:26:01.324Z,21.80
2022-08-22T15:28:52.327Z,21.72
2022-08-22T15:31:22.407Z,21.67
2022-08-22T15:33:51.471Z,21.65
2022-08-22T15:36:27.322Z,21.57
2022-08-22T15:39:17.892Z,21.48
2022-08-22T15:41:48.456Z,21.46
2022-08-22T15:44:31.019Z,21.41
2022-08-22T15:47:10.633Z,21.34
2022-08-22T15:49:52.981Z,21.26
2022-08-22T15:53:08.870Z,21.18
2022-08-22T15:55:38.399Z,21.07
2022-08-22T15:58:24.847Z,20.96
2022-08-22T16:01:19.108Z,20.83
2022-08-22T16:04:12.622Z,20.76
2022-08-22T16:07:19.429Z,20.67
2022-08-22T16:09:53.199Z,20.53
2022-08-22T16:12:26.980Z,20.46
2022-08-22T16:14:55.312Z,20.40
2022-08-22T16:17:31.560Z,20.35
2022-08-22T16:20:15.856Z,20.33
2022-08-22T16:22:56.670Z,20.28
2022-08-22T16:25:44.950Z,20.24
2022-08-22T16:28:56.215Z,20.24
2022-08-22T16:31:23.564Z,20.19
2022-08-22T16:33:51.653Z,20.15
2022-08-22T16:36:41.288Z,20.12
2022-08-22T16:39:31.463Z,20.09
2022-08-22T16:42:22.564Z,20.00
2022-08-22T16:45:35.233Z,19.96
2022-08-22T16:48:17.453Z,19.93
2022-08-22T16:51:01.807Z,19.89
2022-08-22T16:53:29.622Z,19.90
2022-08-22T16:56:19.498Z,19.84
2022-08-22T16:59:03.330Z,19.80
2022-08-22T17:02:20.631Z,19.79
2022-08-22T17:05:32.745Z,19.78
2022-08-22T17:08:15.818Z,19.80
2022-08-22T17:10:46.733Z,19.81
2022-08-22T17:13:48.489Z,19.83
2022-08-22T17:16:44.218Z,19.98
2022-08-22T17:19:31.327Z,20.04
2022-08-22T17:22:29.012Z,20.03
2022-08-22T17:25:18.178Z,19.99
2022-08-22T17:28:10.521Z,20.04
2022-08-22T17:30:53.483Z,20.14
2022-08-22T17:33:43.240Z,20.16
2022-08-22T17:36:27.208Z,20.17
2022-08-22T17:39:52.943Z,20.25
2022-08-22T17:42:29.785Z,20.43
2022-08-22T17:45:09.684Z,20.51
2022-08-22T17:47:49.308Z,20.56
2022-08-22T17:50:30.143Z,20.56
2022-08-22T17:53:09.580Z,20.58
2022-08-22T17:56:00.499Z,20.67
2022-08-22T17:58:43.233Z,20.64
2022-08-22T18:01:20.473Z,20.56
2022-08-22T18:03:59.955Z,20.55
2022-08-22T18:06:34.944Z,20.57
2022-08-22T18:09:16.787Z,20.64
2022-08-22T18:11:55.563Z,20.66
2022-08-22T18:14:45.891Z,20.71
2022-08-22T18:17:41.963Z,20.73
2022-08-22T18:20:13.602Z,20.67
2022-08-22T18:22:49.980Z,20.69
2022-08-22T18:25:18.204Z,20.59
2022-08-22T18:27:54.696Z,20.40
2022-08-22T18:30:28.261Z,20.23
2022-08-22T18:33:00.975Z,20.14
2022-08-22T18:35:39.355Z,20.04
2022-08-22T18:38:24.326Z,19.92
2022-08-22T18:41:11.255Z,19.77
2022-08-22T18:43:49.420Z,19.61
2022-08-22T18:46:39.118Z,19.46
2022-08-22T18:49:20.137Z,19.34
2022-08-22T18:52:27.077Z,19.19
2022-08-22T18:54:56.183Z,19.04
2022-08-22T18:57:40.330Z,18.95
2022-08-22T19:00:19.120Z,18.87
2022-08-22T19:03:21.198Z,18.81
2022-08-22T19:06:08.925Z,18.79
2022-08-22T19:09:14.544Z,18.73
2022-08-22T19:12:16.445Z,18.75
2022-08-22T19:15:06.502Z,18.74
2022-08-22T19:18:08.872Z,18.71
2022-08-22T19:20:59.096Z,18.70
2022-08-22T19:23:33.260Z,18.71
2022-08-22T19:26:34.178Z,18.76
2022-08-22T19:29:18.771Z,18.78
2022-08-22T19:31:53.699Z,18.79
2022-08-22T19:34:33.043Z,18.81
2022-08-22T19:37:32.771Z,18.83
2022-08-22T19:40:09.631Z,18.84
2022-08-22T19:42:43.966Z,18.87
2022-08-22T19:45:29.592Z,18.90
2022-08-22T19:48:13.116Z,18.95
2022-08-22T19:50:50.758Z,19.00
2022-08-22T19:53:31.880Z,19.05
2022-08-22T19:56:23.104Z,19.09
2022-08-22T19:59:10.011Z,19.14
2022-08-22T20:01:52.451Z,19.13
2022-08-22T20:04:59.639Z,19.12
2022-08-22T20:07:49.056Z,19.11
2022-08-22T20:10:28.540Z,19.09
2022-08-22T20:13:05.373Z,19.09
2022-08-22T20:16:14.085Z,19.06
2022-08-22T20:19:06.424Z,19.06
2022-08-22T20:21:59.347Z,19.08
2022-08-22T20:24:43.839Z,19.15
2022-08-22T20:27:24.414Z,19.13
2022-08-22T20:30:19.129Z,19.07
2022-08-22T20:32:54.379Z,19.10
2022-08-22T20:35:29.283Z,19.19
2022-08-22T20:38:06.726Z,19.32
2022-08-22T20:41:21.545Z,19.42
2022-08-22T20:43:55.634Z,19.59
2022-08-22T20:46:33.323Z,19.72
2022-08-22T20:49:02.462Z,19.70
2022-08-22T20:51:33.959Z,19.44
2022-08-22T20:54:15.932Z,19.16
2022-08-22T20:56:56.167Z,18.85
2022-08-22T20:59:36.155Z,18.60
2022-08-22T21:02:21.586Z,18.47
2022-08-22T21:05:01.194Z,18.40
2022-08-22T21:07:33.824Z,18.41
2022-08-22T21:10:43.835Z,18.36
2022-08-22T21:13:25.925Z,18.27
2022-08-22T21:15:59.338Z,18.29
2022-08-22T21:18:36.214Z,18.33
2022-08-22T21:21:22.528Z,18.37
2022-08-22T21:24:06.365Z,18.29
2022-08-22T21:26:36.738Z,18.23
2022-08-22T21:29:22.612Z,18.22
2022-08-22T21:31:59.193Z,18.17
2022-08-22T21:34:44.633Z,18.07
2022-08-22T21:37:16.992Z,17.91
2022-08-22T21:39:50.349Z,17.82
2022-08-22T21:42:29.374Z,17.77
2022-08-22T21:45:00.987Z,17.75
2022-08-22T21:47:31.147Z,17.81
2022-08-22T21:50:05.567Z,17.85
2022-08-22T21:52:37.778Z,17.89
2022-08-22T21:55:16.913Z,17.90
2022-08-22T21:57:44.905Z,17.93
2022-08-22T22:00:48.632Z,17.96
2022-08-22T22:03:21.841Z,17.96
2022-08-22T22:05:52.969Z,17.94
2022-08-22T22:08:21.005Z,17.93
2022-08-22T22:10:50.932Z,17.99
2022-08-22T22:13:21.082Z,18.00
2022-08-22T22:15:52.969Z,17.96
2022-08-22T22:18:29.788Z,17.92
2022-08-22T22:20:58.304Z,17.86
2022-08-22T22:23:27.500Z,17.81
2022-08-22T22:25:58.305Z,17.78
2022-08-22T22:28:34.028Z,17.79
2022-08-22T22:31:03.720Z,17.71
2022-08-22T22:33:40.336Z,17.62
2022-08-22T22:36:12.761Z,17.58
2022-08-22T22:38:41.190Z,17.56
2022-08-22T22:41:09.137Z,17.54
2022-08-22T22:43:37.191Z,17.55
2022-08-22T22:46:06.630Z,17.54
2022-08-22T22:48:34.700Z,17.55
2022-08-22T22:51:12.385Z,17.52
2022-08-22T22:53:43.031Z,17.51
2022-08-22T22:56:16.634Z,17.48
2022-08-22T22:58:45.529Z,17.50
2022-08-22T23:01:21.889Z,17.50
2022-08-22T23:03:58.355Z,17.48
2022-08-22T23:06:29.453Z,17.49
2022-08-22T23:08:58.425Z,17.53
2022-08-22T23:11:31.003Z,17.50
2022-08-22T23:13:58.934Z,17.44
2022-08-22T23:16:28.836Z,17.42
2022-08-22T23:18:56.978Z,17.39
2022-08-22T23:21:30.166Z,17.37
2022-08-22T23:24:00.275Z,17.35
2022-08-22T23:26:29.156Z,17.38
2022-08-22T23:28:58.224Z,17.38
2022-08-22T23:31:37.613Z,17.38
2022-08-22T23:34:12.717Z,17.40
2022-08-22T23:36:50.504Z,17.44
2022-08-22T23:39:23.009Z,17.47
2022-08-22T23:41:51.328Z,17.45
2022-08-22T23:44:24.030Z,17.45
2022-08-22T23:46:52.827Z,17.41
2022-08-22T23:49:21.125Z,17.35
2022-08-22T23:51:49.979Z,17.35
2022-08-22T23:54:18.946Z,17.39
2022-08-22T23:56:57.242Z,17.38
2022-08-22T23:59:30.797Z,17.43
